sensor_id;sensor_type;location;lat;lon;timestamp;temperature;humidity
55436;DHT22;41307;53.142;6.430;2022-07-29T00:00:14;15.20;99.90
55436;DHT22;41307;53.142;6.430;2022-07-29T00:02:40;15.10;99.90
55436;DHT22;41307;53.142;6.430;2022-07-29T00:05:07;15.10;99.90
55436;DHT22;41307;53.142;6.430;2022-07-29T00:07:33;15.10;99.90
55436;DHT22;41307;53.142;6.430;2022-07-29T00:09:59;15.10;99.90
55436;DHT22;41307;53.142;6.430;2022-07-29T00:12:25;15.10;99.90
55436;DHT22;41307;53.142;6.430;2022-07-29T00:14:51;15.10;99.90
55436;DHT22;41307;53.142;6.430;2022-07-29T00:17:17;15.10;99.90
55436;DHT22;41307;53.142;6.430;2022-07-29T00:19:43;15.10;99.90
55436;DHT22;41307;53.142;6.430;2022-07-29T00:22:08;15.10;99.90
55436;DHT22;41307;53.142;6.430;2022-07-29T00:24:34;15.10;99.90
55436;DHT22;41307;53.142;6.430;2022-07-29T00:27:00;15.10;99.90
55436;DHT22;41307;53.142;6.430;2022-07-29T00:29:26;15.10;99.90
55436;DHT22;41307;53.142;6.430;2022-07-29T00:31:51;15.10;99.90
55436;DHT22;41307;53.142;6.430;2022-07-29T00:34:17;15.10;99.90
55436;DHT22;41307;53.142;6.430;2022-07-29T00:37:01;15.10;99.90
55436;DHT22;41307;53.142;6.430;2022-07-29T00:39:27;15.10;99.90
55436;DHT22;41307;53.142;6.430;2022-07-29T00:41:53;15.10;99.90
55436;DHT22;41307;53.142;6.430;2022-07-29T00:44:19;15.10;99.90
55436;DHT22;41307;53.142;6.430;2022-07-29T00:46:44;15.10;99.90
55436;DHT22;41307;53.142;6.430;2022-07-29T00:49:10;15.10;99.90
55436;DHT22;41307;53.142;6.430;2022-07-29T00:51:36;15.10;99.90
55436;DHT22;41307;53.142;6.430;2022-07-29T00:54:03;15.10;99.90
55436;DHT22;41307;53.142;6.430;2022-07-29T00:56:33;15.10;99.90
55436;DHT22;41307;53.142;6.430;2022-07-29T00:58:59;15.10;99.90
55436;DHT22;41307;53.142;6.430;2022-07-29T01:01:26;15.10;99.90
55436;DHT22;41307;53.142;6.430;2022-07-29T01:03:52;15.10;99.90
55436;DHT22;41307;53.142;6.430;2022-07-29T01:06:18;15.10;99.90
55436;DHT22;41307;53.142;6.430;2022-07-29T01:08:46;15.10;99.90
55436;DHT22;41307;53.142;6.430;2022-07-29T01:11:13;15.10;99.90
55436;DHT22;41307;53.142;6.430;2022-07-29T01:13:39;15.10;99.90
55436;DHT22;41307;53.142;6.430;2022-07-29T01:16:36;15.00;99.90
55436;DHT22;41307;53.142;6.430;2022-07-29T01:19:18;15.00;99.90
55436;DHT22;41307;53.142;6.430;2022-07-29T01:21:55;15.00;99.90
55436;DHT22;41307;53.142;6.430;2022-07-29T01:27:02;15.00;99.90
55436;DHT22;41307;53.142;6.430;2022-07-29T01:29:33;15.00;99.90
55436;DHT22;41307;53.142;6.430;2022-07-29T01:32:10;15.00;99.90
55436;DHT22;41307;53.142;6.430;2022-07-29T01:34:50;14.90;99.90
55436;DHT22;41307;53.142;6.430;2022-07-29T01:40:23;14.90;99.90
55436;DHT22;41307;53.142;6.430;2022-07-29T01:42:54;14.90;99.90
55436;DHT22;41307;53.142;6.430;2022-07-29T01:45:26;14.80;99.90
55436;DHT22;41307;53.142;6.430;2022-07-29T01:48:03;14.80;99.90
55436;DHT22;41307;53.142;6.430;2022-07-29T01:50:49;14.80;99.90
55436;DHT22;41307;53.142;6.430;2022-07-29T01:53:28;14.80;99.90
55436;DHT22;41307;53.142;6.430;2022-07-29T01:55:56;14.80;99.90
55436;DHT22;41307;53.142;6.430;2022-07-29T01:58:23;14.70;99.90
55436;DHT22;41307;53.142;6.430;2022-07-29T02:00:50;14.70;99.90
55436;DHT22;41307;53.142;6.430;2022-07-29T02:03:18;14.70;99.90
55436;DHT22;41307;53.142;6.430;2022-07-29T02:05:45;14.70;99.90
55436;DHT22;41307;53.142;6.430;2022-07-29T02:08:13;14.70;99.90
55436;DHT22;41307;53.142;6.430;2022-07-29T02:10:40;14.70;99.90
55436;DHT22;41307;53.142;6.430;2022-07-29T02:13:09;14.70;99.90
55436;DHT22;41307;53.142;6.430;2022-07-29T02:15:36;14.70;99.90
55436;DHT22;41307;53.142;6.430;2022-07-29T02:18:09;14.80;99.90
55436;DHT22;41307;53.142;6.430;2022-07-29T02:20:37;14.60;99.90
55436;DHT22;41307;53.142;6.430;2022-07-29T02:23:03;14.60;99.90
55436;DHT22;41307;53.142;6.430;2022-07-29T02:25:30;14.60;99.90
55436;DHT22;41307;53.142;6.430;2022-07-29T02:27:58;14.60;99.90
55436;DHT22;41307;53.142;6.430;2022-07-29T02:30:25;14.60;99.90
55436;DHT22;41307;53.142;6.430;2022-07-29T02:32:53;14.60;99.90
55436;DHT22;41307;53.142;6.430;2022-07-29T02:35:20;14.70;99.90
55436;DHT22;41307;53.142;6.430;2022-07-29T02:37:47;14.70;99.90
55436;DHT22;41307;53.142;6.430;2022-07-29T02:40:37;14.70;99.90
55436;DHT22;41307;53.142;6.430;2022-07-29T02:43:06;14.70;99.90
55436;DHT22;41307;53.142;6.430;2022-07-29T02:45:33;14.70;99.90
55436;DHT22;41307;53.142;6.430;2022-07-29T02:48:01;14.80;99.90
55436;DHT22;41307;53.142;6.430;2022-07-29T02:50:33;14.80;99.90
55436;DHT22;41307;53.142;6.430;2022-07-29T02:53:12;14.80;99.90
55436;DHT22;41307;53.142;6.430;2022-07-29T02:56:00;14.80;99.90
55436;DHT22;41307;53.142;6.430;2022-07-29T02:58:34;14.80;99.90
55436;DHT22;41307;53.142;6.430;2022-07-29T03:01:08;14.80;99.90
55436;DHT22;41307;53.142;6.430;2022-07-29T03:03:37;14.80;99.90
55436;DHT22;41307;53.142;6.430;2022-07-29T03:06:05;14.80;99.90
55436;DHT22;41307;53.142;6.430;2022-07-29T03:08:32;14.80;99.90
55436;DHT22;41307;53.142;6.430;2022-07-29T03:10:58;14.80;99.90
55436;DHT22;41307;53.142;6.430;2022-07-29T03:13:26;14.90;99.90
55436;DHT22;41307;53.142;6.430;2022-07-29T03:15:53;14.90;99.90
55436;DHT22;41307;53.142;6.430;2022-07-29T03:18:20;14.90;99.90
55436;DHT22;41307;53.142;6.430;2022-07-29T03:20:46;14.90;99.90
55436;DHT22;41307;53.142;6.430;2022-07-29T03:23:18;14.80;99.90
55436;DHT22;41307;53.142;6.430;2022-07-29T03:25:45;14.90;99.90
55436;DHT22;41307;53.142;6.430;2022-07-29T03:28:11;14.90;99.90
55436;DHT22;41307;53.142;6.430;2022-07-29T03:30:37;14.90;99.90
55436;DHT22;41307;53.142;6.430;2022-07-29T03:33:02;14.90;99.90
55436;DHT22;41307;53.142;6.430;2022-07-29T03:35:28;14.90;99.90
55436;DHT22;41307;53.142;6.430;2022-07-29T03:37:57;14.90;99.90
55436;DHT22;41307;53.142;6.430;2022-07-29T03:40:27;15.00;99.90
55436;DHT22;41307;53.142;6.430;2022-07-29T03:42:56;15.00;99.90
55436;DHT22;41307;53.142;6.430;2022-07-29T03:45:23;14.90;99.90
55436;DHT22;41307;53.142;6.430;2022-07-29T03:47:55;15.00;99.90
55436;DHT22;41307;53.142;6.430;2022-07-29T03:50:22;15.00;99.90
55436;DHT22;41307;53.142;6.430;2022-07-29T03:52:48;15.10;99.90
55436;DHT22;41307;53.142;6.430;2022-07-29T03:55:15;15.00;99.90
55436;DHT22;41307;53.142;6.430;2022-07-29T03:57:42;15.00;99.90
55436;DHT22;41307;53.142;6.430;2022-07-29T04:00:09;15.00;99.90
55436;DHT22;41307;53.142;6.430;2022-07-29T04:02:36;15.00;99.90
55436;DHT22;41307;53.142;6.430;2022-07-29T04:05:02;15.00;99.90
55436;DHT22;41307;53.142;6.430;2022-07-29T04:07:28;15.00;99.90
55436;DHT22;41307;53.142;6.430;2022-07-29T04:09:54;15.00;99.90
55436;DHT22;41307;53.142;6.430;2022-07-29T04:12:20;15.00;99.90
55436;DHT22;41307;53.142;6.430;2022-07-29T04:14:46;15.00;99.90
55436;DHT22;41307;53.142;6.430;2022-07-29T04:17:12;15.00;99.90
55436;DHT22;41307;53.142;6.430;2022-07-29T04:19:37;14.90;99.90
55436;DHT22;41307;53.142;6.430;2022-07-29T04:22:03;14.90;99.90
55436;DHT22;41307;53.142;6.430;2022-07-29T04:24:29;15.00;99.90
55436;DHT22;41307;53.142;6.430;2022-07-29T04:26:55;15.00;99.90
55436;DHT22;41307;53.142;6.430;2022-07-29T04:29:21;15.00;99.90
55436;DHT22;41307;53.142;6.430;2022-07-29T04:31:46;15.00;99.90
55436;DHT22;41307;53.142;6.430;2022-07-29T04:34:12;15.00;99.90
55436;DHT22;41307;53.142;6.430;2022-07-29T04:36:38;15.00;99.90
55436;DHT22;41307;53.142;6.430;2022-07-29T04:39:04;15.00;99.90
55436;DHT22;41307;53.142;6.430;2022-07-29T04:41:30;15.00;99.90
55436;DHT22;41307;53.142;6.430;2022-07-29T04:43:56;15.00;99.90
55436;DHT22;41307;53.142;6.430;2022-07-29T04:46:22;15.00;99.90
55436;DHT22;41307;53.142;6.430;2022-07-29T04:48:48;15.00;99.90
55436;DHT22;41307;53.142;6.430;2022-07-29T04:51:17;15.10;99.90
55436;DHT22;41307;53.142;6.430;2022-07-29T04:53:42;15.10;99.90
55436;DHT22;41307;53.142;6.430;2022-07-29T04:56:08;15.10;99.90
55436;DHT22;41307;53.142;6.430;2022-07-29T04:58:35;15.10;99.90
55436;DHT22;41307;53.142;6.430;2022-07-29T05:01:01;15.10;99.90
55436;DHT22;41307;53.142;6.430;2022-07-29T05:03:26;15.20;99.90
55436;DHT22;41307;53.142;6.430;2022-07-29T05:05:52;15.20;99.90
55436;DHT22;41307;53.142;6.430;2022-07-29T05:08:18;15.30;99.90
55436;DHT22;41307;53.142;6.430;2022-07-29T05:10:43;15.30;99.90
55436;DHT22;41307;53.142;6.430;2022-07-29T05:13:09;15.30;99.90
55436;DHT22;41307;53.142;6.430;2022-07-29T05:15:35;15.40;99.90
55436;DHT22;41307;53.142;6.430;2022-07-29T05:18:01;15.40;99.90
55436;DHT22;41307;53.142;6.430;2022-07-29T05:20:28;15.50;99.90
55436;DHT22;41307;53.142;6.430;2022-07-29T05:22:58;15.50;99.90
55436;DHT22;41307;53.142;6.430;2022-07-29T05:25:26;15.60;99.90
55436;DHT22;41307;53.142;6.430;2022-07-29T05:27:52;15.60;99.90
55436;DHT22;41307;53.142;6.430;2022-07-29T05:30:19;15.70;99.90
55436;DHT22;41307;53.142;6.430;2022-07-29T05:32:45;15.70;99.90
55436;DHT22;41307;53.142;6.430;2022-07-29T05:35:12;15.80;99.90
55436;DHT22;41307;53.142;6.430;2022-07-29T05:37:38;15.80;99.90
55436;DHT22;41307;53.142;6.430;2022-07-29T05:40:04;15.90;99.90
55436;DHT22;41307;53.142;6.430;2022-07-29T05:42:30;15.90;99.90
55436;DHT22;41307;53.142;6.430;2022-07-29T05:44:56;15.90;99.90
55436;DHT22;41307;53.142;6.430;2022-07-29T05:47:22;16.00;99.90
55436;DHT22;41307;53.142;6.430;2022-07-29T05:49:48;16.10;99.90
55436;DHT22;41307;53.142;6.430;2022-07-29T05:52:14;16.20;99.90
55436;DHT22;41307;53.142;6.430;2022-07-29T05:54:40;16.20;99.90
55436;DHT22;41307;53.142;6.430;2022-07-29T05:57:06;16.30;99.90
55436;DHT22;41307;53.142;6.430;2022-07-29T05:59:36;16.50;99.90
55436;DHT22;41307;53.142;6.430;2022-07-29T06:02:02;16.70;99.90
55436;DHT22;41307;53.142;6.430;2022-07-29T06:04:28;16.80;99.90
55436;DHT22;41307;53.142;6.430;2022-07-29T06:06:54;17.10;99.90
55436;DHT22;41307;53.142;6.430;2022-07-29T06:09:19;17.50;99.90
55436;DHT22;41307;53.142;6.430;2022-07-29T06:11:45;18.20;99.90
55436;DHT22;41307;53.142;6.430;2022-07-29T06:14:11;18.70;99.90
55436;DHT22;41307;53.142;6.430;2022-07-29T06:16:36;18.90;99.90
55436;DHT22;41307;53.142;6.430;2022-07-29T06:19:02;19.10;99.90
55436;DHT22;41307;53.142;6.430;2022-07-29T06:21:28;19.30;99.90
55436;DHT22;41307;53.142;6.430;2022-07-29T06:23:53;19.30;99.90
55436;DHT22;41307;53.142;6.430;2022-07-29T06:26:20;19.30;99.90
55436;DHT22;41307;53.142;6.430;2022-07-29T06:28:46;19.20;99.90
55436;DHT22;41307;53.142;6.430;2022-07-29T06:31:11;19.20;99.90
55436;DHT22;41307;53.142;6.430;2022-07-29T06:33:37;19.30;99.90
55436;DHT22;41307;53.142;6.430;2022-07-29T06:36:06;19.50;99.90
55436;DHT22;41307;53.142;6.430;2022-07-29T06:38:33;20.10;99.90
55436;DHT22;41307;53.142;6.430;2022-07-29T06:40:59;20.40;99.90
55436;DHT22;41307;53.142;6.430;2022-07-29T06:43:30;20.40;99.90
55436;DHT22;41307;53.142;6.430;2022-07-29T06:46:02;20.10;99.90
55436;DHT22;41307;53.142;6.430;2022-07-29T06:48:29;19.70;99.90
55436;DHT22;41307;53.142;6.430;2022-07-29T06:50:54;19.40;99.90
55436;DHT22;41307;53.142;6.430;2022-07-29T06:53:20;19.20;99.90
55436;DHT22;41307;53.142;6.430;2022-07-29T06:55:46;19.10;99.90
55436;DHT22;41307;53.142;6.430;2022-07-29T06:58:12;19.10;99.90
55436;DHT22;41307;53.142;6.430;2022-07-29T07:00:39;19.00;99.90
55436;DHT22;41307;53.142;6.430;2022-07-29T07:03:05;19.00;99.90
55436;DHT22;41307;53.142;6.430;2022-07-29T07:05:31;19.00;99.90
55436;DHT22;41307;53.142;6.430;2022-07-29T07:07:59;18.90;99.90
55436;DHT22;41307;53.142;6.430;2022-07-29T07:10:25;18.80;99.90
55436;DHT22;41307;53.142;6.430;2022-07-29T07:12:51;18.90;99.90
55436;DHT22;41307;53.142;6.430;2022-07-29T07:15:17;18.90;99.90
55436;DHT22;41307;53.142;6.430;2022-07-29T07:17:50;18.80;99.90
55436;DHT22;41307;53.142;6.430;2022-07-29T07:20:17;18.80;99.90
55436;DHT22;41307;53.142;6.430;2022-07-29T07:22:43;18.80;99.90
55436;DHT22;41307;53.142;6.430;2022-07-29T07:25:12;18.80;99.90
55436;DHT22;41307;53.142;6.430;2022-07-29T07:27:38;18.90;99.90
55436;DHT22;41307;53.142;6.430;2022-07-29T07:30:05;19.00;99.90
55436;DHT22;41307;53.142;6.430;2022-07-29T07:32:32;19.00;99.90
55436;DHT22;41307;53.142;6.430;2022-07-29T07:34:58;19.00;99.90
55436;DHT22;41307;53.142;6.430;2022-07-29T07:37:24;19.00;99.90
55436;DHT22;41307;53.142;6.430;2022-07-29T07:39:51;19.00;99.90
55436;DHT22;41307;53.142;6.430;2022-07-29T07:42:18;19.00;99.90
55436;DHT22;41307;53.142;6.430;2022-07-29T07:44:44;19.00;99.90
55436;DHT22;41307;53.142;6.430;2022-07-29T07:47:12;19.00;99.90
55436;DHT22;41307;53.142;6.430;2022-07-29T07:49:38;19.10;99.90
55436;DHT22;41307;53.142;6.430;2022-07-29T07:52:04;19.00;99.90
55436;DHT22;41307;53.142;6.430;2022-07-29T07:54:31;18.90;99.90
55436;DHT22;41307;53.142;6.430;2022-07-29T07:56:57;19.00;99.90
55436;DHT22;41307;53.142;6.430;2022-07-29T07:59:23;18.90;99.90
55436;DHT22;41307;53.142;6.430;2022-07-29T08:01:50;18.80;99.90
55436;DHT22;41307;53.142;6.430;2022-07-29T08:04:15;18.70;99.90
55436;DHT22;41307;53.142;6.430;2022-07-29T08:06:41;18.70;99.90
55436;DHT22;41307;53.142;6.430;2022-07-29T08:09:07;18.70;99.90
55436;DHT22;41307;53.142;6.430;2022-07-29T08:11:33;18.60;99.90
55436;DHT22;41307;53.142;6.430;2022-07-29T08:13:59;18.70;99.90
55436;DHT22;41307;53.142;6.430;2022-07-29T08:16:27;18.70;99.90
55436;DHT22;41307;53.142;6.430;2022-07-29T08:18:52;18.80;99.90
55436;DHT22;41307;53.142;6.430;2022-07-29T08:21:23;18.80;99.90
55436;DHT22;41307;53.142;6.430;2022-07-29T08:23:49;18.80;99.90
55436;DHT22;41307;53.142;6.430;2022-07-29T08:26:18;18.80;99.90
55436;DHT22;41307;53.142;6.430;2022-07-29T08:28:44;18.80;99.90
55436;DHT22;41307;53.142;6.430;2022-07-29T08:31:12;18.90;99.90
55436;DHT22;41307;53.142;6.430;2022-07-29T08:33:38;18.90;99.90
55436;DHT22;41307;53.142;6.430;2022-07-29T08:36:05;19.00;99.90
55436;DHT22;41307;53.142;6.430;2022-07-29T08:38:32;19.10;99.90
55436;DHT22;41307;53.142;6.430;2022-07-29T08:40:59;19.10;99.90
55436;DHT22;41307;53.142;6.430;2022-07-29T08:43:27;19.10;99.90
55436;DHT22;41307;53.142;6.430;2022-07-29T08:45:53;19.20;99.90
55436;DHT22;41307;53.142;6.430;2022-07-29T08:48:21;19.20;99.90
55436;DHT22;41307;53.142;6.430;2022-07-29T08:50:50;19.30;99.90
55436;DHT22;41307;53.142;6.430;2022-07-29T08:53:18;19.40;99.90
55436;DHT22;41307;53.142;6.430;2022-07-29T08:55:48;19.50;99.90
55436;DHT22;41307;53.142;6.430;2022-07-29T08:58:15;19.60;99.90
55436;DHT22;41307;53.142;6.430;2022-07-29T09:00:44;19.70;99.90
55436;DHT22;41307;53.142;6.430;2022-07-29T09:03:13;19.90;99.90
55436;DHT22;41307;53.142;6.430;2022-07-29T09:05:45;20.20;99.90
55436;DHT22;41307;53.142;6.430;2022-07-29T09:08:12;20.70;99.90
55436;DHT22;41307;53.142;6.430;2022-07-29T09:10:38;21.40;99.90
55436;DHT22;41307;53.142;6.430;2022-07-29T09:13:04;21.90;99.90
55436;DHT22;41307;53.142;6.430;2022-07-29T09:15:30;22.00;99.90
55436;DHT22;41307;53.142;6.430;2022-07-29T09:17:56;22.00;99.90
55436;DHT22;41307;53.142;6.430;2022-07-29T09:20:24;22.10;99.90
55436;DHT22;41307;53.142;6.430;2022-07-29T09:22:52;22.10;99.90
55436;DHT22;41307;53.142;6.430;2022-07-29T09:28:15;22.10;99.90
55436;DHT22;41307;53.142;6.430;2022-07-29T09:30:52;22.20;99.90
55436;DHT22;41307;53.142;6.430;2022-07-29T09:33:18;22.00;99.90
55436;DHT22;41307;53.142;6.430;2022-07-29T09:35:58;21.80;99.90
55436;DHT22;41307;53.142;6.430;2022-07-29T09:38:24;21.60;99.90
55436;DHT22;41307;53.142;6.430;2022-07-29T09:40:58;21.40;99.90
55436;DHT22;41307;53.142;6.430;2022-07-29T09:43:24;21.30;99.90
55436;DHT22;41307;53.142;6.430;2022-07-29T09:46:12;21.00;99.90
55436;DHT22;41307;53.142;6.430;2022-07-29T09:48:38;21.00;99.90
55436;DHT22;41307;53.142;6.430;2022-07-29T09:51:04;21.00;99.90
55436;DHT22;41307;53.142;6.430;2022-07-29T09:53:33;21.00;99.90
55436;DHT22;41307;53.142;6.430;2022-07-29T09:55:59;21.00;99.90
55436;DHT22;41307;53.142;6.430;2022-07-29T09:58:28;20.90;99.90
55436;DHT22;41307;53.142;6.430;2022-07-29T10:00:54;20.80;99.90
55436;DHT22;41307;53.142;6.430;2022-07-29T10:03:23;20.70;99.90
55436;DHT22;41307;53.142;6.430;2022-07-29T10:06:09;20.50;99.90
55436;DHT22;41307;53.142;6.430;2022-07-29T10:08:36;20.30;99.90
55436;DHT22;41307;53.142;6.430;2022-07-29T10:11:15;20.20;99.90
55436;DHT22;41307;53.142;6.430;2022-07-29T10:13:42;20.30;99.90
55436;DHT22;41307;53.142;6.430;2022-07-29T10:16:12;20.50;99.90
55436;DHT22;41307;53.142;6.430;2022-07-29T10:18:40;20.60;99.90
55436;DHT22;41307;53.142;6.430;2022-07-29T10:21:06;20.60;99.90
55436;DHT22;41307;53.142;6.430;2022-07-29T10:23:34;20.70;99.90
55436;DHT22;41307;53.142;6.430;2022-07-29T10:26:00;20.80;99.90
55436;DHT22;41307;53.142;6.430;2022-07-29T10:28:29;20.80;99.90
55436;DHT22;41307;53.142;6.430;2022-07-29T10:31:00;20.90;99.90
55436;DHT22;41307;53.142;6.430;2022-07-29T10:33:58;20.90;99.90
55436;DHT22;41307;53.142;6.430;2022-07-29T10:36:59;21.00;99.90
55436;DHT22;41307;53.142;6.430;2022-07-29T10:40:03;21.10;99.90
55436;DHT22;41307;53.142;6.430;2022-07-29T10:42:55;21.30;99.90
55436;DHT22;41307;53.142;6.430;2022-07-29T10:45:25;21.30;99.90
55436;DHT22;41307;53.142;6.430;2022-07-29T10:48:03;21.30;99.90
55436;DHT22;41307;53.142;6.430;2022-07-29T10:50:53;21.30;99.90
55436;DHT22;41307;53.142;6.430;2022-07-29T10:53:23;21.40;99.90
55436;DHT22;41307;53.142;6.430;2022-07-29T10:55:51;21.60;99.90
55436;DHT22;41307;53.142;6.430;2022-07-29T10:58:20;21.80;99.90
55436;DHT22;41307;53.142;6.430;2022-07-29T11:00:48;21.80;99.90
55436;DHT22;41307;53.142;6.430;2022-07-29T11:06:12;21.80;99.90
55436;DHT22;41307;53.142;6.430;2022-07-29T11:08:43;21.90;99.90
55436;DHT22;41307;53.142;6.430;2022-07-29T11:16:12;21.80;99.90
55436;DHT22;41307;53.142;6.430;2022-07-29T11:21:43;21.70;99.90
55436;DHT22;41307;53.142;6.430;2022-07-29T11:24:19;21.60;99.90
55436;DHT22;41307;53.142;6.430;2022-07-29T11:29:31;21.80;99.90
55436;DHT22;41307;53.142;6.430;2022-07-29T11:36:07;22.00;99.90
55436;DHT22;41307;53.142;6.430;2022-07-29T11:38:33;22.00;99.90
55436;DHT22;41307;53.142;6.430;2022-07-29T11:43:47;22.10;99.90
55436;DHT22;41307;53.142;6.430;2022-07-29T11:46:14;22.30;99.90
55436;DHT22;41307;53.142;6.430;2022-07-29T11:48:43;22.40;99.90
55436;DHT22;41307;53.142;6.430;2022-07-29T11:51:11;22.60;99.90
55436;DHT22;41307;53.142;6.430;2022-07-29T11:53:39;22.70;99.90
55436;DHT22;41307;53.142;6.430;2022-07-29T11:56:08;22.80;99.90
55436;DHT22;41307;53.142;6.430;2022-07-29T11:58:34;22.90;99.90
55436;DHT22;41307;53.142;6.430;2022-07-29T12:01:00;22.90;99.90
55436;DHT22;41307;53.142;6.430;2022-07-29T12:03:29;23.10;99.90
55436;DHT22;41307;53.142;6.430;2022-07-29T12:06:00;23.20;99.90
55436;DHT22;41307;53.142;6.430;2022-07-29T12:08:26;23.40;99.90
55436;DHT22;41307;53.142;6.430;2022-07-29T12:10:53;23.50;99.40
55436;DHT22;41307;53.142;6.430;2022-07-29T12:13:22;23.60;99.30
55436;DHT22;41307;53.142;6.430;2022-07-29T12:15:56;23.80;98.80
55436;DHT22;41307;53.142;6.430;2022-07-29T12:18:26;24.00;97.30
55436;DHT22;41307;53.142;6.430;2022-07-29T12:21:02;24.10;96.90
55436;DHT22;41307;53.142;6.430;2022-07-29T12:23:29;24.30;97.40
55436;DHT22;41307;53.142;6.430;2022-07-29T12:25:55;24.20;96.80
55436;DHT22;41307;53.142;6.430;2022-07-29T12:28:22;24.40;96.60
55436;DHT22;41307;53.142;6.430;2022-07-29T12:30:49;24.40;95.30
55436;DHT22;41307;53.142;6.430;2022-07-29T12:33:22;24.50;95.10
55436;DHT22;41307;53.142;6.430;2022-07-29T12:43:17;24.70;93.80
55436;DHT22;41307;53.142;6.430;2022-07-29T12:45:47;24.70;94.00
55436;DHT22;41307;53.142;6.430;2022-07-29T12:48:13;24.70;93.90
55436;DHT22;41307;53.142;6.430;2022-07-29T12:50:55;24.90;93.90
55436;DHT22;41307;53.142;6.430;2022-07-29T12:53:25;25.10;92.20
55436;DHT22;41307;53.142;6.430;2022-07-29T12:55:56;25.30;91.70
55436;DHT22;41307;53.142;6.430;2022-07-29T12:58:34;25.60;89.60
55436;DHT22;41307;53.142;6.430;2022-07-29T13:01:36;25.50;87.10
55436;DHT22;41307;53.142;6.430;2022-07-29T13:04:09;25.60;87.70
55436;DHT22;41307;53.142;6.430;2022-07-29T13:09:41;25.40;81.00
55436;DHT22;41307;53.142;6.430;2022-07-29T13:12:20;25.10;80.60
55436;DHT22;41307;53.142;6.430;2022-07-29T13:15:15;24.80;80.90
55436;DHT22;41307;53.142;6.430;2022-07-29T13:17:44;24.80;80.20
55436;DHT22;41307;53.142;6.430;2022-07-29T13:20:29;24.60;82.00
55436;DHT22;41307;53.142;6.430;2022-07-29T13:22:56;24.50;82.50
55436;DHT22;41307;53.142;6.430;2022-07-29T13:25:31;24.40;81.60
55436;DHT22;41307;53.142;6.430;2022-07-29T13:27:58;24.40;83.40
55436;DHT22;41307;53.142;6.430;2022-07-29T13:30:27;24.50;82.50
55436;DHT22;41307;53.142;6.430;2022-07-29T13:32:54;24.60;81.80
55436;DHT22;41307;53.142;6.430;2022-07-29T13:35:20;24.60;81.80
55436;DHT22;41307;53.142;6.430;2022-07-29T13:37:46;24.70;81.90
55436;DHT22;41307;53.142;6.430;2022-07-29T13:40:12;24.70;81.70
55436;DHT22;41307;53.142;6.430;2022-07-29T13:42:39;24.60;82.10
55436;DHT22;41307;53.142;6.430;2022-07-29T13:45:07;24.60;82.60
55436;DHT22;41307;53.142;6.430;2022-07-29T13:47:33;24.70;83.50
55436;DHT22;41307;53.142;6.430;2022-07-29T13:50:00;24.70;83.30
55436;DHT22;41307;53.142;6.430;2022-07-29T13:52:26;24.80;84.00
55436;DHT22;41307;53.142;6.430;2022-07-29T13:54:55;24.80;83.70
55436;DHT22;41307;53.142;6.430;2022-07-29T13:57:21;24.80;83.10
55436;DHT22;41307;53.142;6.430;2022-07-29T13:59:47;24.80;83.90
55436;DHT22;41307;53.142;6.430;2022-07-29T14:02:13;24.90;82.00
55436;DHT22;41307;53.142;6.430;2022-07-29T14:04:39;24.80;80.30
55436;DHT22;41307;53.142;6.430;2022-07-29T14:07:05;24.70;80.80
55436;DHT22;41307;53.142;6.430;2022-07-29T14:09:33;24.70;81.80
55436;DHT22;41307;53.142;6.430;2022-07-29T14:11:59;24.60;81.90
55436;DHT22;41307;53.142;6.430;2022-07-29T14:14:25;24.70;81.70
55436;DHT22;41307;53.142;6.430;2022-07-29T14:16:51;24.60;81.10
55436;DHT22;41307;53.142;6.430;2022-07-29T14:19:16;24.50;81.10
55436;DHT22;41307;53.142;6.430;2022-07-29T14:21:42;24.50;80.60
55436;DHT22;41307;53.142;6.430;2022-07-29T14:24:08;24.40;80.30
55436;DHT22;41307;53.142;6.430;2022-07-29T14:26:34;24.30;80.90
55436;DHT22;41307;53.142;6.430;2022-07-29T14:29:00;24.30;81.10
55436;DHT22;41307;53.142;6.430;2022-07-29T14:31:26;24.20;81.80
55436;DHT22;41307;53.142;6.430;2022-07-29T14:33:51;24.20;82.20
55436;DHT22;41307;53.142;6.430;2022-07-29T14:36:18;24.30;82.10
55436;DHT22;41307;53.142;6.430;2022-07-29T14:38:44;24.20;81.50
55436;DHT22;41307;53.142;6.430;2022-07-29T14:41:13;24.10;81.90
55436;DHT22;41307;53.142;6.430;2022-07-29T14:47:13;24.10;82.10
55436;DHT22;41307;53.142;6.430;2022-07-29T14:49:39;24.20;82.80
55436;DHT22;41307;53.142;6.430;2022-07-29T14:52:06;24.20;82.20
55436;DHT22;41307;53.142;6.430;2022-07-29T14:54:31;24.20;81.00
55436;DHT22;41307;53.142;6.430;2022-07-29T14:56:57;24.20;80.30
55436;DHT22;41307;53.142;6.430;2022-07-29T14:59:23;24.40;81.20
55436;DHT22;41307;53.142;6.430;2022-07-29T15:01:49;24.50;80.30
55436;DHT22;41307;53.142;6.430;2022-07-29T15:04:15;24.60;79.40
55436;DHT22;41307;53.142;6.430;2022-07-29T15:06:40;24.50;78.80
55436;DHT22;41307;53.142;6.430;2022-07-29T15:09:06;24.30;77.90
55436;DHT22;41307;53.142;6.430;2022-07-29T15:11:32;24.30;78.10
55436;DHT22;41307;53.142;6.430;2022-07-29T15:13:58;24.30;78.10
55436;DHT22;41307;53.142;6.430;2022-07-29T15:16:26;24.40;77.70
55436;DHT22;41307;53.142;6.430;2022-07-29T15:19:15;24.40;77.70
55436;DHT22;41307;53.142;6.430;2022-07-29T15:22:20;24.40;77.70
55436;DHT22;41307;53.142;6.430;2022-07-29T15:25:09;24.40;77.20
55436;DHT22;41307;53.142;6.430;2022-07-29T15:27:35;24.30;78.00
55436;DHT22;41307;53.142;6.430;2022-07-29T15:30:00;24.20;78.90
55436;DHT22;41307;53.142;6.430;2022-07-29T15:32:28;24.20;79.80
55436;DHT22;41307;53.142;6.430;2022-07-29T15:34:59;24.30;80.60
55436;DHT22;41307;53.142;6.430;2022-07-29T15:37:25;24.40;80.50
55436;DHT22;41307;53.142;6.430;2022-07-29T15:39:51;24.40;80.90
55436;DHT22;41307;53.142;6.430;2022-07-29T15:42:17;24.40;80.50
55436;DHT22;41307;53.142;6.430;2022-07-29T15:44:42;24.40;80.40
55436;DHT22;41307;53.142;6.430;2022-07-29T15:47:08;24.40;80.60
55436;DHT22;41307;53.142;6.430;2022-07-29T15:49:36;24.40;80.20
55436;DHT22;41307;53.142;6.430;2022-07-29T15:52:12;24.40;79.40
55436;DHT22;41307;53.142;6.430;2022-07-29T15:55:01;24.30;79.10
55436;DHT22;41307;53.142;6.430;2022-07-29T15:57:27;24.20;78.80
55436;DHT22;41307;53.142;6.430;2022-07-29T16:00:09;24.10;78.10
55436;DHT22;41307;53.142;6.430;2022-07-29T16:06:19;23.80;78.70
55436;DHT22;41307;53.142;6.430;2022-07-29T16:08:45;23.80;79.50
55436;DHT22;41307;53.142;6.430;2022-07-29T16:11:11;23.80;79.50
55436;DHT22;41307;53.142;6.430;2022-07-29T16:13:36;23.80;79.30
55436;DHT22;41307;53.142;6.430;2022-07-29T16:16:08;23.80;78.90
55436;DHT22;41307;53.142;6.430;2022-07-29T16:18:34;23.80;78.70
55436;DHT22;41307;53.142;6.430;2022-07-29T16:20:59;23.80;79.10
55436;DHT22;41307;53.142;6.430;2022-07-29T16:23:25;23.80;79.40
55436;DHT22;41307;53.142;6.430;2022-07-29T16:25:51;23.80;79.90